createdAt,value
2023-01-05T00:01:40.133Z,11.53
2023-01-05T00:04:07.960Z,11.65
2023-01-05T00:06:37.192Z,11.51
2023-01-05T00:09:05.795Z,11.83
2023-01-05T00:11:50.931Z,11.42
2023-01-05T00:14:39.464Z,11.67
2023-01-05T00:17:25.954Z,11.71
2023-01-05T00:20:16.085Z,11.63
2023-01-05T00:22:47.799Z,11.36
2023-01-05T00:25:17.454Z,11.20
2023-01-05T00:27:48.030Z,11.24
2023-01-05T00:30:19.236Z,11.53
2023-01-05T00:32:47.140Z,11.48
2023-01-05T00:35:16.415Z,11.47
2023-01-05T00:37:45.241Z,11.72
2023-01-05T00:40:15.703Z,11.57
2023-01-05T00:42:43.240Z,11.82
2023-01-05T00:45:12.732Z,11.57
2023-01-05T00:47:42.071Z,11.44
2023-01-05T00:50:11.349Z,11.29
2023-01-05T00:52:38.781Z,11.17
2023-01-05T00:55:07.123Z,11.27
2023-01-05T00:57:34.513Z,11.20
2023-01-05T01:00:02.217Z,12.07
2023-01-05T01:02:29.825Z,11.47
2023-01-05T01:04:58.661Z,11.45
2023-01-05T01:07:26.135Z,12.05
2023-01-05T01:09:53.600Z,11.75
2023-01-05T01:12:21.042Z,11.50
2023-01-05T01:14:49.662Z,11.89
2023-01-05T01:17:17.390Z,11.16
2023-01-05T01:19:46.703Z,11.55
2023-01-05T01:22:15.709Z,11.68
2023-01-05T01:24:43.239Z,11.84
2023-01-05T01:27:10.783Z,11.42
2023-01-05T01:29:38.202Z,11.13
2023-01-05T01:32:05.942Z,11.13
2023-01-05T01:34:33.403Z,11.21
2023-01-05T01:39:29.468Z,11.72
2023-01-05T01:41:56.927Z,11.62
2023-01-05T01:44:49.858Z,11.14
2023-01-05T01:47:24.874Z,11.06
2023-01-05T01:49:52.763Z,10.84
2023-01-05T01:52:22.956Z,11.19
2023-01-05T01:54:52.983Z,11.42
2023-01-05T01:57:21.715Z,11.48
2023-01-05T01:59:49.311Z,11.78
2023-01-05T02:02:16.970Z,11.27
2023-01-05T02:04:45.656Z,11.57
2023-01-05T02:07:16.192Z,11.44
2023-01-05T02:09:44.026Z,11.77
2023-01-05T02:12:27.398Z,11.36
2023-01-05T02:15:06.406Z,11.40
2023-01-05T02:17:42.859Z,11.16
2023-01-05T02:20:31.051Z,11.56
2023-01-05T02:23:28.339Z,11.12
2023-01-05T02:26:29.833Z,11.17
2023-01-05T02:29:18.557Z,10.94
2023-01-05T02:31:56.555Z,11.39
2023-01-05T02:34:32.922Z,11.24
2023-01-05T02:37:08.653Z,11.17
2023-01-05T02:39:44.593Z,10.81
2023-01-05T02:42:16.204Z,11.27
2023-01-05T02:44:43.601Z,11.37
2023-01-05T02:47:38.763Z,11.48
2023-01-05T02:50:12.267Z,11.31
2023-01-05T02:52:47.541Z,11.14
2023-01-05T02:55:20.374Z,11.60
2023-01-05T02:57:53.232Z,11.66
2023-01-05T03:00:25.942Z,11.61
2023-01-05T03:03:00.083Z,11.25
2023-01-05T03:05:33.316Z,11.32
2023-01-05T03:08:07.920Z,11.17
2023-01-05T03:11:01.008Z,11.51
2023-01-05T03:13:43.805Z,11.35
2023-01-05T03:16:15.942Z,11.51
2023-01-05T03:19:03.567Z,11.88
2023-01-05T03:21:45.493Z,11.54
2023-01-05T03:24:31.095Z,11.41
2023-01-05T03:27:16.503Z,11.16
2023-01-05T03:30:01.852Z,11.34
2023-01-05T03:32:50.687Z,11.30
2023-01-05T03:35:32.550Z,11.58
2023-01-05T03:38:04.884Z,11.33
2023-01-05T03:40:35.703Z,11.07
2023-01-05T03:43:05.083Z,11.18
2023-01-05T03:45:39.961Z,11.25
2023-01-05T03:48:07.802Z,11.00
2023-01-05T03:50:38.920Z,11.20
2023-01-05T03:53:07.964Z,11.63
2023-01-05T03:55:35.546Z,11.51
2023-01-05T03:58:03.001Z,11.70
2023-01-05T04:00:30.483Z,11.24
2023-01-05T04:02:58.041Z,11.13
2023-01-05T04:05:25.921Z,11.37
2023-01-05T04:07:54.648Z,11.32
2023-01-05T04:10:22.226Z,10.96
2023-01-05T04:12:49.696Z,10.98
2023-01-05T04:15:17.261Z,11.19
2023-01-05T04:17:44.744Z,11.38
2023-01-05T04:20:12.919Z,11.18
2023-01-05T04:22:40.373Z,11.12
2023-01-05T04:25:09.972Z,11.75
2023-01-05T04:27:37.593Z,11.56
2023-01-05T04:30:06.631Z,10.95
2023-01-05T04:32:34.025Z,10.75
2023-01-05T04:35:07.070Z,11.02
2023-01-05T04:37:38.415Z,11.15
2023-01-05T04:40:07.394Z,11.30
2023-01-05T04:42:36.119Z,11.29
2023-01-05T04:45:03.550Z,11.26
2023-01-05T04:47:30.930Z,11.20
2023-01-05T04:49:58.337Z,11.17
2023-01-05T04:52:25.738Z,10.87
2023-01-05T04:54:53.164Z,10.89
2023-01-05T04:57:20.550Z,10.88
2023-01-05T04:59:49.315Z,11.39
2023-01-05T05:02:16.811Z,11.98
2023-01-05T05:04:44.265Z,11.23
2023-01-05T05:07:11.722Z,11.37
2023-01-05T05:09:39.199Z,11.38
2023-01-05T05:12:06.937Z,11.49
2023-01-05T05:14:34.380Z,11.25
2023-01-05T05:17:03.072Z,11.18
2023-01-05T05:19:30.486Z,11.12
2023-01-05T05:21:58.163Z,11.58
2023-01-05T05:24:25.622Z,11.09
2023-01-05T05:26:53.000Z,11.35
2023-01-05T05:29:20.535Z,11.47
2023-01-05T05:31:48.303Z,11.69
2023-01-05T05:34:17.137Z,11.57
2023-01-05T05:36:44.601Z,11.30
2023-01-05T05:39:13.094Z,11.79
2023-01-05T05:41:40.854Z,10.95
2023-01-05T05:44:08.318Z,11.24
2023-01-05T05:46:35.864Z,11.01
2023-01-05T05:49:04.699Z,11.52
2023-01-05T05:51:33.588Z,11.17
2023-01-05T05:54:01.210Z,11.30
2023-01-05T05:56:28.748Z,11.38
2023-01-05T05:59:01.223Z,11.05
2023-01-05T06:01:29.542Z,10.32
2023-01-05T06:03:57.123Z,10.21
2023-01-05T06:06:24.614Z,10.06
2023-01-05T06:08:53.362Z,10.27
2023-01-05T06:11:20.765Z,10.11
2023-01-05T06:13:49.325Z,9.96
2023-01-05T06:16:17.238Z,10.01
2023-01-05T06:18:44.690Z,10.02
2023-01-05T06:21:12.106Z,9.64
2023-01-05T06:23:39.494Z,9.76
2023-01-05T06:26:08.226Z,9.98
2023-01-05T06:28:35.669Z,9.97
2023-01-05T06:31:03.139Z,10.23
2023-01-05T06:33:34.219Z,10.45
2023-01-05T06:36:01.642Z,10.27
2023-01-05T06:38:29.352Z,10.28
2023-01-05T06:40:58.045Z,9.88
2023-01-05T06:43:26.958Z,9.91
2023-01-05T06:45:54.516Z,9.87
2023-01-05T06:48:21.924Z,9.92
2023-01-05T06:50:49.377Z,9.88
2023-01-05T06:53:16.812Z,10.03
2023-01-05T06:55:45.567Z,10.08
2023-01-05T06:58:13.069Z,9.97
2023-01-05T07:00:41.956Z,9.93
2023-01-05T07:03:13.315Z,10.09
2023-01-05T07:05:41.107Z,10.16
2023-01-05T07:08:09.170Z,9.94
2023-01-05T07:10:36.685Z,10.04
2023-01-05T07:13:04.118Z,9.87
2023-01-05T07:15:31.515Z,9.84
2023-01-05T07:18:00.235Z,9.97
2023-01-05T07:20:28.088Z,9.92
2023-01-05T07:22:55.542Z,9.85
2023-01-05T07:25:22.992Z,10.01
2023-01-05T07:27:52.708Z,10.12
2023-01-05T07:30:20.312Z,9.86
2023-01-05T07:32:47.740Z,9.86
2023-01-05T07:35:16.644Z,9.79
2023-01-05T07:37:44.450Z,9.73
2023-01-05T07:40:12.740Z,9.68
2023-01-05T07:42:40.127Z,9.78
2023-01-05T07:45:08.449Z,9.71
2023-01-05T07:47:35.920Z,9.72
2023-01-05T07:50:03.316Z,9.76
2023-01-05T07:52:33.170Z,9.71
2023-01-05T07:55:00.630Z,9.68
2023-01-05T07:57:28.067Z,9.73
2023-01-05T07:59:55.439Z,9.68
2023-01-05T08:02:22.890Z,9.88
2023-01-05T08:04:50.307Z,9.84
2023-01-05T08:07:17.689Z,9.88
2023-01-05T08:10:04.170Z,9.88
2023-01-05T08:12:31.640Z,9.84
2023-01-05T08:14:59.142Z,9.76
2023-01-05T08:17:26.503Z,9.78
2023-01-05T08:19:53.893Z,9.84
2023-01-05T08:22:21.260Z,9.60
2023-01-05T08:24:49.993Z,9.74
2023-01-05T08:27:17.457Z,9.44
2023-01-05T08:29:44.889Z,9.92
2023-01-05T08:32:12.309Z,10.00
2023-01-05T08:34:39.741Z,9.74
2023-01-05T08:37:07.145Z,9.85
2023-01-05T08:39:35.901Z,9.93
2023-01-05T08:42:04.744Z,10.20
2023-01-05T08:44:32.171Z,10.14
2023-01-05T08:46:59.557Z,9.77
2023-01-05T08:49:26.949Z,9.83
2023-01-05T08:51:54.379Z,10.00
2023-01-05T08:54:21.824Z,9.90
2023-01-05T08:56:50.643Z,10.04
2023-01-05T08:59:19.755Z,9.61
2023-01-05T09:01:47.312Z,9.72
2023-01-05T09:04:14.787Z,9.66
2023-01-05T09:06:42.424Z,9.46
2023-01-05T09:09:10.423Z,9.61
2023-01-05T09:11:38.135Z,9.64
2023-01-05T09:14:05.580Z,9.74
2023-01-05T09:17:06.044Z,12.91
2023-01-05T09:19:23.760Z,13.16
2023-01-05T09:21:52.259Z,12.32
2023-01-05T09:24:19.848Z,11.72
2023-01-05T09:26:47.321Z,11.68
2023-01-05T09:29:15.552Z,11.84
2023-01-05T09:31:45.186Z,11.09
2023-01-05T09:34:12.643Z,10.21
2023-01-05T09:36:40.204Z,9.71
2023-01-05T09:39:07.996Z,9.85
2023-01-05T09:41:39.289Z,9.90
2023-01-05T09:44:14.824Z,10.09
2023-01-05T09:46:47.501Z,10.13
2023-01-05T09:49:17.491Z,10.06
2023-01-05T09:51:45.016Z,10.01
2023-01-05T09:54:17.670Z,9.94
2023-01-05T09:59:37.614Z,9.95
2023-01-05T10:02:17.219Z,9.90
2023-01-05T10:04:45.165Z,9.77
2023-01-05T10:07:20.496Z,10.01
2023-01-05T10:09:51.873Z,9.99
2023-01-05T10:12:43.958Z,9.93
2023-01-05T10:15:17.071Z,9.96
2023-01-05T10:17:46.027Z,10.10
2023-01-05T10:20:19.852Z,10.05
2023-01-05T10:23:04.480Z,9.89
2023-01-05T10:25:39.688Z,10.03
2023-01-05T10:28:23.540Z,10.13
2023-01-05T10:30:58.264Z,10.06
2023-01-05T10:33:52.034Z,10.19
2023-01-05T10:37:07.215Z,10.02
2023-01-05T10:39:48.576Z,10.18
2023-01-05T10:42:33.386Z,10.09
2023-01-05T10:45:04.797Z,10.16
2023-01-05T10:47:38.319Z,10.12
2023-01-05T10:50:26.121Z,10.32
2023-01-05T10:52:54.343Z,10.24
2023-01-05T10:55:23.818Z,10.28
2023-01-05T10:57:51.355Z,9.93
2023-01-05T11:00:20.775Z,10.47
2023-01-05T11:02:51.521Z,10.19
2023-01-05T11:05:34.695Z,10.03
2023-01-05T11:08:04.658Z,10.33
2023-01-05T11:10:35.288Z,10.31
2023-01-05T11:13:06.496Z,10.21
2023-01-05T11:15:40.866Z,10.14
2023-01-05T11:18:20.120Z,10.09
2023-01-05T11:21:07.846Z,10.11
2023-01-05T11:23:38.554Z,10.16
2023-01-05T11:26:21.926Z,10.08
2023-01-05T11:28:59.612Z,10.04
2023-01-05T11:31:28.990Z,10.11
2023-01-05T11:33:58.679Z,10.15
2023-01-05T11:36:27.833Z,10.12
2023-01-05T11:38:57.719Z,10.12
2023-01-05T11:41:25.818Z,10.26
2023-01-05T11:43:55.195Z,10.21
2023-01-05T11:46:23.787Z,10.40
2023-01-05T11:48:54.303Z,10.25
2023-01-05T11:51:37.221Z,10.02
2023-01-05T11:54:05.359Z,10.05
2023-01-05T11:56:32.762Z,9.93
2023-01-05T11:59:00.197Z,9.96
2023-01-05T12:01:57.038Z,9.97
2023-01-05T12:04:52.783Z,9.99
2023-01-05T12:07:33.013Z,10.14
2023-01-05T12:10:14.037Z,10.04
2023-01-05T12:12:53.753Z,10.20
2023-01-05T12:15:40.106Z,10.19
2023-01-05T12:18:21.534Z,10.28
2023-01-05T12:21:07.165Z,10.42
2023-01-05T12:24:13.980Z,10.37
2023-01-05T12:26:50.242Z,10.14
2023-01-05T12:35:58.344Z,10.24
2023-01-05T12:38:46.476Z,10.15
2023-01-05T12:41:32.234Z,10.10
2023-01-05T12:44:26.598Z,10.01
2023-01-05T12:47:08.749Z,10.05
2023-01-05T12:49:41.838Z,9.97
2023-01-05T12:52:14.573Z,9.86
2023-01-05T12:54:46.832Z,9.79
2023-01-05T12:57:22.427Z,9.98
2023-01-05T12:59:56.929Z,10.15
2023-01-05T13:02:33.145Z,9.89
2023-01-05T13:05:05.714Z,10.12
2023-01-05T13:07:39.416Z,10.17
2023-01-05T13:10:16.024Z,10.30
2023-01-05T13:12:44.756Z,10.11
2023-01-05T13:15:19.441Z,10.03
2023-01-05T13:17:49.421Z,10.15
2023-01-05T13:20:27.076Z,10.25
2023-01-05T13:23:00.619Z,10.05
2023-01-05T13:25:32.138Z,10.05
2023-01-05T13:28:01.008Z,9.88
2023-01-05T13:30:32.013Z,9.76
2023-01-05T13:33:25.101Z,9.90
2023-01-05T13:36:04.189Z,9.84
2023-01-05T13:39:10.960Z,9.94
2023-01-05T13:41:59.042Z,9.89
2023-01-05T13:44:43.264Z,9.91
2023-01-05T13:47:27.487Z,9.87
2023-01-05T13:50:26.005Z,9.65
2023-01-05T13:53:05.657Z,9.92
2023-01-05T13:55:36.410Z,9.57
2023-01-05T13:58:04.082Z,9.49
2023-01-05T14:00:36.785Z,9.40
2023-01-05T14:03:08.215Z,9.27
2023-01-05T14:05:48.438Z,9.35
2023-01-05T14:08:25.828Z,9.22
2023-01-05T14:11:09.799Z,9.22
2023-01-05T14:13:43.204Z,9.13
2023-01-05T14:16:48.163Z,9.09
2023-01-05T14:19:22.558Z,9.01
2023-01-05T14:22:21.757Z,9.09
2023-01-05T14:24:49.315Z,8.85
2023-01-05T14:27:18.001Z,8.83
2023-01-05T14:30:20.535Z,8.84
2023-01-05T14:32:48.426Z,8.95
2023-01-05T14:35:30.298Z,8.88
2023-01-05T14:38:00.819Z,8.88
2023-01-05T14:40:38.367Z,8.98
2023-01-05T14:43:08.860Z,8.86
2023-01-05T14:45:40.146Z,8.85
2023-01-05T14:48:26.434Z,8.79
2023-01-05T14:51:24.585Z,8.77
2023-01-05T14:53:53.736Z,8.80
2023-01-05T14:56:25.531Z,8.70
2023-01-05T14:59:07.474Z,8.49
2023-01-05T15:04:18.524Z,8.59
2023-01-05T15:07:24.500Z,8.43
2023-01-05T15:10:11.414Z,8.45
2023-01-05T15:12:58.091Z,8.26
2023-01-05T15:15:36.090Z,8.43
2023-01-05T15:18:33.340Z,8.37
2023-01-05T15:21:24.559Z,8.54
2023-01-05T15:24:18.775Z,8.28
2023-01-05T15:27:04.107Z,8.38
2023-01-05T15:29:56.870Z,8.27
2023-01-05T15:32:26.793Z,8.56
2023-01-05T15:34:58.895Z,8.54
2023-01-05T15:37:31.477Z,8.21
2023-01-05T15:40:03.875Z,8.43
2023-01-05T15:42:39.751Z,8.47
2023-01-05T15:45:10.889Z,8.38
2023-01-05T15:47:40.515Z,8.40
2023-01-05T15:50:17.006Z,8.31
2023-01-05T15:52:53.277Z,8.42
2023-01-05T15:55:22.971Z,8.48
2023-01-05T15:57:56.143Z,8.52
2023-01-05T16:00:26.802Z,8.51
2023-01-05T16:02:54.418Z,8.60
2023-01-05T16:05:23.800Z,8.49
2023-01-05T16:07:57.575Z,8.25
2023-01-05T16:10:30.043Z,8.28
2023-01-05T16:13:03.500Z,8.39
2023-01-05T16:15:34.879Z,8.69
2023-01-05T16:18:03.224Z,8.34
2023-01-05T16:20:31.050Z,8.51
2023-01-05T16:23:08.311Z,8.71
2023-01-05T16:25:42.459Z,8.89
2023-01-05T16:28:17.354Z,8.63
2023-01-05T16:30:46.315Z,8.37
2023-01-05T16:33:28.051Z,8.13
2023-01-05T16:36:08.450Z,8.18
2023-01-05T16:38:36.006Z,8.30
2023-01-05T16:41:20.760Z,8.22
2023-01-05T16:43:54.885Z,8.62
2023-01-05T16:46:31.558Z,8.63
2023-01-05T16:49:02.585Z,8.39
2023-01-05T16:51:42.405Z,8.21
2023-01-05T16:54:18.966Z,8.50
2023-01-05T16:56:58.536Z,8.29
2023-01-05T16:59:45.758Z,8.39
2023-01-05T17:02:40.566Z,8.34
2023-01-05T17:05:08.333Z,8.15
2023-01-05T17:07:38.720Z,8.58
2023-01-05T17:10:07.555Z,8.42
2023-01-05T17:12:36.366Z,8.08
2023-01-05T17:15:07.195Z,8.37
2023-01-05T17:17:34.775Z,8.11
2023-01-05T17:20:02.192Z,8.51
2023-01-05T17:22:29.731Z,8.12
2023-01-05T17:24:57.151Z,8.08
2023-01-05T17:27:24.550Z,8.13
2023-01-05T17:29:53.426Z,8.20
2023-01-05T17:32:20.884Z,7.89
2023-01-05T17:34:48.419Z,7.95
2023-01-05T17:37:17.526Z,8.33
2023-01-05T17:39:44.939Z,8.37
2023-01-05T17:44:58.930Z,8.30
2023-01-05T17:47:26.331Z,8.11
2023-01-05T17:49:53.804Z,8.39
2023-01-05T17:52:21.247Z,8.90
2023-01-05T17:54:48.665Z,8.70
2023-01-05T17:57:16.064Z,8.23
2023-01-05T17:59:44.644Z,8.58
2023-01-05T18:02:13.407Z,8.46
2023-01-05T18:04:41.080Z,8.69
2023-01-05T18:09:40.808Z,8.90
2023-01-05T18:12:08.343Z,8.84
2023-01-05T18:14:35.787Z,8.65
2023-01-05T18:17:03.219Z,8.97
2023-01-05T18:19:33.489Z,8.65
2023-01-05T18:22:01.155Z,8.50
2023-01-05T18:24:28.832Z,8.01
2023-01-05T18:26:56.276Z,8.11
2023-01-05T18:29:23.683Z,8.13
2023-01-05T18:31:51.147Z,7.88
2023-01-05T18:34:18.586Z,8.24
2023-01-05T18:36:52.448Z,7.81
2023-01-05T18:39:26.634Z,7.97
2023-01-05T18:41:55.460Z,8.13
2023-01-05T18:44:23.510Z,7.98
2023-01-05T18:46:50.942Z,8.02
2023-01-05T18:49:18.387Z,7.95
2023-01-05T18:51:47.209Z,7.72
2023-01-05T18:54:14.643Z,7.56
2023-01-05T18:56:42.055Z,8.05
2023-01-05T18:59:11.012Z,7.61
2023-01-05T19:01:40.144Z,7.82
2023-01-05T19:04:07.650Z,7.69
2023-01-05T19:06:35.166Z,8.14
2023-01-05T19:09:05.352Z,7.63
2023-01-05T19:11:33.286Z,7.63
2023-01-05T19:14:02.587Z,7.67
2023-01-05T19:16:31.988Z,8.11
2023-01-05T19:19:03.316Z,8.30
2023-01-05T19:21:32.980Z,7.54
2023-01-05T19:24:04.394Z,7.68
2023-01-05T19:26:33.616Z,7.98
2023-01-05T19:29:02.336Z,7.54
2023-01-05T19:31:30.643Z,7.66
2023-01-05T19:33:59.739Z,8.23
2023-01-05T19:36:32.252Z,7.76
2023-01-05T19:39:01.741Z,7.42
2023-01-05T19:41:31.222Z,7.76
2023-01-05T19:43:59.031Z,7.56
2023-01-05T19:46:28.350Z,8.27
2023-01-05T19:48:56.431Z,7.83
2023-01-05T19:51:26.956Z,8.08
2023-01-05T19:53:56.498Z,7.63
2023-01-05T19:56:25.931Z,7.45
2023-01-05T19:58:56.056Z,7.64
2023-01-05T20:01:25.133Z,8.33
2023-01-05T20:03:52.874Z,7.96
2023-01-05T20:06:23.292Z,7.60
2023-01-05T20:08:53.323Z,8.28
2023-01-05T20:11:35.668Z,7.84
2023-01-05T20:14:05.382Z,7.98
2023-01-05T20:16:32.890Z,7.79
2023-01-05T20:19:00.723Z,7.22
2023-01-05T20:21:28.481Z,7.28
2023-01-05T20:23:55.937Z,7.26
2023-01-05T20:26:24.635Z,7.65
2023-01-05T20:28:52.389Z,8.06
2023-01-05T20:31:24.243Z,7.54
2023-01-05T20:33:52.353Z,7.80
2023-01-05T20:36:21.004Z,8.01
2023-01-05T20:38:48.697Z,8.26
2023-01-05T20:41:18.271Z,8.80
2023-01-05T20:43:47.080Z,8.99
2023-01-05T20:46:16.600Z,9.01
2023-01-05T20:48:45.710Z,9.12
2023-01-05T20:51:14.875Z,9.18
2023-01-05T20:53:43.238Z,9.11
2023-01-05T20:56:13.511Z,9.09
2023-01-05T20:58:41.786Z,9.17
2023-01-05T21:01:11.648Z,9.27
2023-01-05T21:03:40.014Z,9.40
2023-01-05T21:06:11.487Z,9.58
2023-01-05T21:08:39.845Z,9.69
2023-01-05T21:11:15.759Z,9.65
2023-01-05T21:13:44.377Z,9.47
2023-01-05T21:16:17.023Z,9.60
2023-01-05T21:18:45.411Z,9.04
2023-01-05T21:21:15.861Z,9.67
2023-01-05T21:23:44.274Z,9.89
2023-01-05T21:26:14.705Z,10.44
2023-01-05T21:28:44.480Z,9.37
2023-01-05T21:31:18.702Z,10.41
2023-01-05T21:33:46.807Z,11.28
2023-01-05T21:36:20.232Z,10.93
2023-01-05T21:39:01.186Z,10.19
2023-01-05T21:41:50.524Z,9.90
2023-01-05T21:44:19.813Z,9.24
2023-01-05T21:46:48.263Z,9.04
2023-01-05T21:49:16.801Z,8.79
2023-01-05T21:52:05.991Z,8.97
2023-01-05T21:54:50.772Z,9.37
2023-01-05T21:57:18.682Z,10.69
2023-01-05T21:59:47.629Z,11.57
2023-01-05T22:02:15.833Z,12.16
2023-01-05T22:04:43.805Z,11.33
2023-01-05T22:07:12.729Z,11.29
2023-01-05T22:09:40.183Z,11.11
2023-01-05T22:12:09.069Z,9.99
2023-01-05T22:14:36.715Z,10.19
2023-01-05T22:17:05.221Z,9.83
2023-01-05T22:19:32.729Z,9.83
2023-01-05T22:22:00.160Z,9.86
2023-01-05T22:24:28.896Z,9.88
2023-01-05T22:26:56.353Z,9.31
2023-01-05T22:29:24.200Z,9.47
2023-01-05T22:31:52.038Z,9.64
2023-01-05T22:34:21.123Z,9.56
2023-01-05T22:36:49.050Z,8.55
2023-01-05T22:39:17.083Z,8.80
2023-01-05T22:41:46.522Z,8.92
2023-01-05T22:44:13.974Z,9.09
2023-01-05T22:46:41.638Z,9.14
2023-01-05T22:49:13.283Z,8.94
2023-01-05T22:51:41.756Z,8.90
2023-01-05T22:54:09.269Z,9.02
2023-01-05T22:56:37.139Z,8.88
2023-01-05T22:59:06.203Z,8.82
2023-01-05T23:01:36.150Z,8.71
2023-01-05T23:04:06.289Z,8.64
2023-01-05T23:06:34.461Z,8.49
2023-01-05T23:09:02.921Z,8.37
2023-01-05T23:11:32.571Z,8.27
2023-01-05T23:14:01.822Z,8.19
2023-01-05T23:16:30.904Z,8.41
2023-01-05T23:18:58.501Z,8.32
2023-01-05T23:21:27.403Z,8.33
2023-01-05T23:23:56.375Z,8.08
2023-01-05T23:26:25.010Z,8.23
2023-01-05T23:28:52.774Z,8.41
2023-01-05T23:31:20.663Z,8.25
2023-01-05T23:33:50.146Z,8.31
2023-01-05T23:36:19.013Z,8.18
2023-01-05T23:38:47.244Z,8.30
2023-01-05T23:41:16.247Z,8.29
2023-01-05T23:43:45.442Z,8.33
2023-01-05T23:46:16.330Z,8.32
2023-01-05T23:48:44.672Z,8.17
2023-01-05T23:51:16.324Z,8.30
2023-01-05T23:53:46.717Z,8.21
2023-01-05T23:56:16.001Z,8.37
2023-01-05T23:58:43.885Z,8.41
